createdAt,value
2017-05-25T00:02:12.463Z,2.62
2017-05-25T00:04:40.885Z,2.74
2017-05-25T00:07:09.244Z,3.00
2017-05-25T00:09:37.911Z,2.60
2017-05-25T00:12:06.209Z,2.86
2017-05-25T00:14:33.756Z,2.60
2017-05-25T00:17:02.372Z,2.44
2017-05-25T00:19:30.650Z,2.48
2017-05-25T00:21:58.961Z,2.66
2017-05-25T00:24:27.571Z,2.52
2017-05-25T00:26:55.866Z,2.74
2017-05-25T00:29:24.161Z,2.94
2017-05-25T00:31:52.814Z,2.56
2017-05-25T00:34:21.278Z,2.80
2017-05-25T00:36:49.567Z,2.80
2017-05-25T00:39:18.241Z,2.44
2017-05-25T00:41:46.523Z,3.28
2017-05-25T00:44:14.817Z,3.04
2017-05-25T00:46:43.486Z,2.72
2017-05-25T00:49:11.791Z,3.00
2017-05-25T00:51:40.107Z,3.24
2017-05-25T00:54:08.702Z,2.82
2017-05-25T00:56:37.012Z,2.82
2017-05-25T00:59:05.314Z,2.66
2017-05-25T01:01:33.904Z,2.64
2017-05-25T01:04:02.275Z,2.58
2017-05-25T01:06:30.562Z,2.96
2017-05-25T01:08:59.188Z,2.48
2017-05-25T01:11:27.669Z,3.18
2017-05-25T01:13:55.950Z,2.40
2017-05-25T01:16:24.647Z,3.20
2017-05-25T01:18:53.111Z,2.84
2017-05-25T01:21:21.600Z,2.52
2017-05-25T01:23:50.275Z,2.48
2017-05-25T01:26:18.656Z,2.90
2017-05-25T01:28:46.940Z,3.02
2017-05-25T01:31:15.736Z,2.72
2017-05-25T01:33:44.024Z,2.80
2017-05-25T01:36:12.315Z,2.72
2017-05-25T01:38:40.843Z,2.74
2017-05-25T01:41:09.124Z,3.06
2017-05-25T01:43:37.400Z,2.62
2017-05-25T01:46:06.002Z,2.62
2017-05-25T01:48:34.379Z,2.48
2017-05-25T01:51:02.737Z,3.00
2017-05-25T01:53:31.271Z,2.40
2017-05-25T01:55:59.559Z,2.88
2017-05-25T01:58:27.851Z,2.68
2017-05-25T02:00:56.443Z,2.74
2017-05-25T02:03:24.720Z,2.62
2017-05-25T02:05:53.008Z,2.90
2017-05-25T02:08:21.709Z,2.36
2017-05-25T02:10:50.068Z,3.10
2017-05-25T02:13:18.362Z,2.66
2017-05-25T02:15:46.883Z,2.60
2017-05-25T02:18:15.233Z,3.00
2017-05-25T02:20:43.519Z,2.70
2017-05-25T02:23:12.039Z,2.94
2017-05-25T02:25:40.342Z,2.32
2017-05-25T02:28:08.617Z,2.78
2017-05-25T02:30:37.221Z,2.86
2017-05-25T02:33:05.506Z,2.60
2017-05-25T02:35:33.782Z,2.72
2017-05-25T02:38:02.309Z,2.68
2017-05-25T02:40:30.601Z,2.46
2017-05-25T02:42:58.894Z,3.62
2017-05-25T02:45:27.489Z,2.46
2017-05-25T02:47:55.783Z,2.90
2017-05-25T02:50:24.063Z,2.98
2017-05-25T02:52:52.717Z,2.64
2017-05-25T02:55:21.038Z,2.88
2017-05-25T02:57:49.332Z,2.88
2017-05-25T03:00:17.936Z,2.82
2017-05-25T03:02:46.322Z,3.24
2017-05-25T03:05:14.614Z,2.60
2017-05-25T03:07:43.210Z,2.88
2017-05-25T03:10:11.504Z,2.66
2017-05-25T03:12:39.961Z,2.60
2017-05-25T03:15:08.564Z,2.98
2017-05-25T03:17:36.858Z,3.16
2017-05-25T03:20:05.149Z,3.32
2017-05-25T03:22:33.780Z,2.66
2017-05-25T03:25:02.066Z,2.52
2017-05-25T03:27:30.363Z,2.58
2017-05-25T03:29:58.881Z,2.66
2017-05-25T03:32:27.193Z,2.68
2017-05-25T03:34:55.484Z,2.82
2017-05-25T03:37:24.057Z,3.00
2017-05-25T03:39:52.525Z,2.92
2017-05-25T03:42:21.011Z,3.16
2017-05-25T03:44:49.722Z,2.44
2017-05-25T03:47:18.131Z,2.50
2017-05-25T03:49:46.416Z,2.92
2017-05-25T03:52:15.133Z,2.78
2017-05-25T03:54:43.435Z,2.66
2017-05-25T03:57:11.729Z,2.48
2017-05-25T03:59:40.256Z,2.84
2017-05-25T04:02:08.543Z,2.92
2017-05-25T04:04:36.830Z,2.64
2017-05-25T04:07:05.414Z,2.68
2017-05-25T04:09:33.905Z,2.74
2017-05-25T04:12:02.194Z,2.60
2017-05-25T04:14:30.849Z,2.92
2017-05-25T04:16:59.153Z,2.56
2017-05-25T04:19:27.474Z,2.56
2017-05-25T04:21:56.084Z,2.84
2017-05-25T04:24:24.370Z,2.68
2017-05-25T04:26:52.731Z,2.40
2017-05-25T04:29:21.426Z,2.70
2017-05-25T04:31:49.735Z,2.56
2017-05-25T04:34:18.022Z,3.02
2017-05-25T04:36:46.533Z,2.88
2017-05-25T04:39:14.820Z,2.50
2017-05-25T04:41:43.121Z,3.00
2017-05-25T04:44:11.706Z,2.72
2017-05-25T04:46:39.998Z,2.60
2017-05-25T04:49:08.458Z,2.74
2017-05-25T04:51:36.963Z,3.12
2017-05-25T04:54:05.253Z,2.68
2017-05-25T04:56:33.527Z,2.46
2017-05-25T04:59:02.169Z,3.16
2017-05-25T05:01:30.450Z,2.70
2017-05-25T05:03:58.805Z,2.40
2017-05-25T05:06:27.416Z,2.32
2017-05-25T05:08:55.760Z,2.46
2017-05-25T05:11:24.168Z,2.72
2017-05-25T05:13:52.761Z,2.52
2017-05-25T05:16:21.065Z,2.50
2017-05-25T05:18:49.436Z,3.10
2017-05-25T05:21:17.283Z,2.66
2017-05-25T05:23:45.760Z,2.96
2017-05-25T05:26:14.065Z,2.80
2017-05-25T05:28:42.725Z,2.40
2017-05-25T05:31:11.029Z,2.50
2017-05-25T05:33:39.312Z,2.54
2017-05-25T05:36:08.036Z,2.58
2017-05-25T05:38:36.322Z,2.66
2017-05-25T05:41:04.603Z,2.62
2017-05-25T05:43:33.195Z,2.72
2017-05-25T05:46:01.485Z,3.28
2017-05-25T05:48:29.951Z,2.84
2017-05-25T05:50:58.473Z,2.64
2017-05-25T05:53:26.790Z,3.58
2017-05-25T05:55:55.185Z,3.68
2017-05-25T05:58:23.879Z,3.70
2017-05-25T06:00:52.178Z,3.60
2017-05-25T06:03:20.477Z,3.86
2017-05-25T06:05:49.115Z,3.86
2017-05-25T06:08:17.599Z,3.74
2017-05-25T06:10:45.973Z,4.04
2017-05-25T06:13:14.552Z,3.98
2017-05-25T06:15:42.840Z,4.54
2017-05-25T06:18:11.123Z,4.30
2017-05-25T06:20:39.651Z,5.34
2017-05-25T06:23:08.481Z,5.10
2017-05-25T06:25:36.798Z,5.82
2017-05-25T06:28:05.436Z,6.02
2017-05-25T06:30:33.727Z,6.62
2017-05-25T06:33:02.196Z,6.12
2017-05-25T06:35:30.878Z,6.06
2017-05-25T06:37:59.202Z,4.44
2017-05-25T06:40:27.480Z,4.72
2017-05-25T06:42:56.117Z,4.32
2017-05-25T06:45:24.610Z,5.30
2017-05-25T06:47:53.086Z,5.06
2017-05-25T06:50:21.712Z,4.96
2017-05-25T06:52:50.010Z,5.82
2017-05-25T06:55:18.329Z,6.00
2017-05-25T06:57:46.945Z,6.14
2017-05-25T07:00:15.249Z,6.24
2017-05-25T07:02:43.542Z,6.92
2017-05-25T07:05:12.057Z,6.62
2017-05-25T07:07:40.357Z,8.00
2017-05-25T07:10:08.659Z,7.32
2017-05-25T07:12:37.282Z,7.60
2017-05-25T07:15:05.572Z,7.72
2017-05-25T07:17:33.872Z,7.20
2017-05-25T07:20:02.521Z,8.20
2017-05-25T07:22:30.873Z,7.50
2017-05-25T07:24:59.167Z,7.28
2017-05-25T07:27:27.756Z,7.16
2017-05-25T07:29:56.139Z,7.26
2017-05-25T07:32:24.429Z,7.78
2017-05-25T07:34:53.229Z,6.72
2017-05-25T07:37:21.524Z,6.74
2017-05-25T07:39:49.813Z,6.56
2017-05-25T07:42:18.423Z,6.78
2017-05-25T07:44:46.967Z,6.40
2017-05-25T07:47:15.269Z,6.78
2017-05-25T07:49:43.885Z,6.52
2017-05-25T07:52:12.179Z,6.56
2017-05-25T07:54:39.726Z,6.78
2017-05-25T07:57:08.493Z,6.36
2017-05-25T07:59:36.798Z,6.44
2017-05-25T08:02:05.118Z,6.08
2017-05-25T08:04:33.733Z,5.00
2017-05-25T08:07:02.041Z,6.08
2017-05-25T08:09:30.377Z,6.06
2017-05-25T08:11:58.997Z,6.18
2017-05-25T08:14:27.362Z,5.10
2017-05-25T08:16:55.669Z,5.32
2017-05-25T08:19:24.407Z,4.50
2017-05-25T08:21:52.896Z,4.30
2017-05-25T08:24:21.196Z,4.16
2017-05-25T08:26:49.867Z,4.46
2017-05-25T08:29:18.189Z,4.14
2017-05-25T08:31:46.494Z,4.78
2017-05-25T08:34:15.106Z,4.46
2017-05-25T08:36:43.409Z,4.30
2017-05-25T08:39:11.703Z,4.26
2017-05-25T08:41:40.328Z,4.76
2017-05-25T08:44:08.649Z,4.52
2017-05-25T08:46:36.971Z,5.16
2017-05-25T08:49:05.622Z,4.16
2017-05-25T08:51:33.912Z,4.52
2017-05-25T08:54:02.214Z,4.48
2017-05-25T08:56:30.821Z,4.14
2017-05-25T08:58:59.286Z,4.52
2017-05-25T09:01:27.582Z,4.06
2017-05-25T09:03:55.454Z,4.14
2017-05-25T09:06:23.746Z,4.20
2017-05-25T09:08:52.043Z,3.98
2017-05-25T09:11:20.662Z,3.62
2017-05-25T09:13:48.961Z,3.56
2017-05-25T09:16:17.266Z,3.78
2017-05-25T09:18:45.990Z,3.28
2017-05-25T09:21:14.286Z,3.30
2017-05-25T09:23:42.571Z,4.54
2017-05-25T09:26:11.311Z,4.70
2017-05-25T09:28:39.595Z,3.56
2017-05-25T09:31:08.116Z,3.62
2017-05-25T09:33:36.789Z,3.48
2017-05-25T09:36:05.087Z,3.38
2017-05-25T09:38:33.376Z,2.94
2017-05-25T09:41:02.053Z,3.14
2017-05-25T09:43:30.332Z,3.40
2017-05-25T09:45:58.633Z,3.14
2017-05-25T09:48:27.272Z,3.28
2017-05-25T09:50:55.557Z,3.16
2017-05-25T09:53:23.854Z,3.28
2017-05-25T09:55:52.494Z,3.08
2017-05-25T09:58:20.988Z,3.62
2017-05-25T10:00:49.357Z,2.82
2017-05-25T10:03:17.967Z,3.32
2017-05-25T10:05:46.283Z,3.78
2017-05-25T10:08:14.728Z,3.92
2017-05-25T10:10:43.851Z,4.72
2017-05-25T10:13:12.147Z,3.34
2017-05-25T10:15:40.747Z,4.40
2017-05-25T10:18:09.460Z,3.16
2017-05-25T10:20:37.781Z,4.50
2017-05-25T10:23:06.083Z,3.94
2017-05-25T10:25:34.690Z,4.12
2017-05-25T10:28:03.616Z,4.56
2017-05-25T10:30:32.112Z,3.60
2017-05-25T10:33:00.737Z,4.08
2017-05-25T10:35:29.067Z,4.68
2017-05-25T10:37:57.924Z,4.40
2017-05-25T10:40:26.587Z,4.40
2017-05-25T10:42:54.995Z,3.64
2017-05-25T10:45:23.756Z,4.04
2017-05-25T10:47:52.474Z,5.08
2017-05-25T10:50:21.337Z,5.40
2017-05-25T10:52:49.674Z,3.62
2017-05-25T10:55:18.293Z,3.86
2017-05-25T10:57:46.603Z,4.58
2017-05-25T11:00:14.900Z,3.58
2017-05-25T11:02:43.733Z,3.34
2017-05-25T11:05:12.254Z,3.72
2017-05-25T11:07:41.784Z,3.70
2017-05-25T11:10:10.915Z,3.50
2017-05-25T11:12:39.279Z,3.48
2017-05-25T11:15:07.581Z,3.30
2017-05-25T11:17:36.474Z,3.66
2017-05-25T11:20:04.966Z,4.10
2017-05-25T11:22:33.440Z,4.88
2017-05-25T11:25:02.119Z,4.42
2017-05-25T11:27:30.496Z,4.60
2017-05-25T11:29:59.342Z,4.20
2017-05-25T11:32:30.230Z,4.50
2017-05-25T11:34:58.545Z,4.46
2017-05-25T11:37:27.206Z,4.82
2017-05-25T11:39:55.933Z,4.74
2017-05-25T11:42:24.557Z,7.10
2017-05-25T11:44:52.927Z,9.92
2017-05-25T11:47:21.222Z,6.00
2017-05-25T11:49:49.796Z,6.60
2017-05-25T11:52:18.092Z,5.70
2017-05-25T11:54:46.406Z,5.50
2017-05-25T11:57:15.022Z,6.22
2017-05-25T11:59:43.322Z,4.94
2017-05-25T12:02:11.624Z,5.28
2017-05-25T12:04:40.286Z,6.02
2017-05-25T12:07:08.589Z,5.52
2017-05-25T12:09:36.892Z,6.94
2017-05-25T12:12:05.445Z,4.98
2017-05-25T12:14:33.821Z,5.80
2017-05-25T12:17:02.198Z,5.88
2017-05-25T12:19:30.807Z,6.06
2017-05-25T12:21:59.112Z,5.88
2017-05-25T12:24:27.445Z,6.08
2017-05-25T12:26:56.189Z,5.76
2017-05-25T12:29:24.490Z,6.02
2017-05-25T12:31:52.797Z,6.80
2017-05-25T12:34:21.425Z,6.46
2017-05-25T12:36:49.721Z,6.82
2017-05-25T12:39:18.018Z,6.46
2017-05-25T12:41:46.661Z,6.22
2017-05-25T12:44:14.960Z,6.52
2017-05-25T12:46:43.440Z,5.48
2017-05-25T12:49:12.115Z,5.68
2017-05-25T12:51:40.492Z,5.28
2017-05-25T12:54:08.807Z,4.92
2017-05-25T12:56:37.337Z,5.02
2017-05-25T12:59:05.651Z,5.26
2017-05-25T13:01:34.023Z,5.02
2017-05-25T13:04:03.875Z,5.00
2017-05-25T13:06:32.284Z,4.72
2017-05-25T13:09:00.587Z,5.02
2017-05-25T13:11:29.350Z,4.02
2017-05-25T13:13:57.764Z,4.52
2017-05-25T13:16:26.068Z,5.30
2017-05-25T13:18:54.703Z,4.60
2017-05-25T13:21:23.774Z,4.44
2017-05-25T13:23:52.209Z,3.82
2017-05-25T13:26:20.796Z,4.60
2017-05-25T13:28:49.114Z,4.22
2017-05-25T13:31:17.423Z,5.06
2017-05-25T13:33:46.040Z,4.26
2017-05-25T13:36:14.349Z,3.86
2017-05-25T13:38:42.645Z,4.32
2017-05-25T13:41:11.235Z,4.22
2017-05-25T13:43:39.571Z,3.78
2017-05-25T13:46:07.903Z,3.98
2017-05-25T13:48:36.497Z,3.92
2017-05-25T13:51:04.809Z,3.94
2017-05-25T13:53:33.105Z,4.34
2017-05-25T13:56:01.800Z,3.44
2017-05-25T13:58:30.585Z,3.82
2017-05-25T14:00:58.887Z,3.14
2017-05-25T14:03:27.585Z,3.90
2017-05-25T14:05:56.079Z,3.62
2017-05-25T14:08:24.402Z,3.50
2017-05-25T14:10:53.010Z,4.38
2017-05-25T14:13:21.471Z,4.56
2017-05-25T14:15:49.801Z,4.84
2017-05-25T14:18:18.457Z,3.60
2017-05-25T14:20:47.118Z,4.68
2017-05-25T14:23:15.421Z,3.90
2017-05-25T14:25:43.939Z,3.70
2017-05-25T14:28:12.227Z,3.82
2017-05-25T14:30:40.530Z,4.30
2017-05-25T14:33:09.135Z,3.82
2017-05-25T14:35:37.478Z,3.62
2017-05-25T14:38:05.775Z,4.04
2017-05-25T14:40:34.358Z,3.72
2017-05-25T14:43:02.658Z,3.76
2017-05-25T14:45:31.110Z,3.44
2017-05-25T14:47:59.848Z,3.90
2017-05-25T14:50:28.625Z,3.68
2017-05-25T14:52:56.950Z,3.92
2017-05-25T14:55:25.354Z,4.04
2017-05-25T14:57:54.051Z,3.90
2017-05-25T15:00:22.522Z,3.80
2017-05-25T15:02:50.862Z,4.48
2017-05-25T15:05:19.526Z,4.36
2017-05-25T15:07:47.898Z,4.04
2017-05-25T15:10:16.222Z,4.06
2017-05-25T15:12:44.856Z,3.74
2017-05-25T15:15:14.010Z,4.32
2017-05-25T15:17:42.435Z,3.74
2017-05-25T15:20:10.969Z,3.50
2017-05-25T15:22:39.290Z,4.00
2017-05-25T15:25:07.661Z,3.64
2017-05-25T15:27:36.383Z,4.10
2017-05-25T15:30:05.061Z,4.04
2017-05-25T15:32:33.503Z,3.56
2017-05-25T15:35:02.089Z,3.52
2017-05-25T15:37:30.403Z,3.84
2017-05-25T15:39:58.815Z,3.48
2017-05-25T15:42:27.387Z,3.88
2017-05-25T15:44:55.791Z,3.48
2017-05-25T15:47:24.088Z,3.64
2017-05-25T15:49:52.760Z,4.48
2017-05-25T15:52:21.161Z,3.64
2017-05-25T15:54:49.511Z,3.76
2017-05-25T15:57:18.063Z,3.20
2017-05-25T15:59:46.404Z,3.70
2017-05-25T16:02:14.720Z,4.20
2017-05-25T16:04:43.357Z,3.66
2017-05-25T16:07:11.711Z,3.82
2017-05-25T16:09:39.997Z,3.62
2017-05-25T16:12:08.641Z,3.36
2017-05-25T16:14:36.955Z,3.50
2017-05-25T16:17:05.257Z,3.60
2017-05-25T16:19:34.060Z,3.20
2017-05-25T16:22:02.391Z,3.22
2017-05-25T16:24:30.681Z,3.20
2017-05-25T16:26:59.331Z,3.12
2017-05-25T16:29:27.694Z,3.32
2017-05-25T16:31:56.068Z,3.60
2017-05-25T16:34:24.679Z,3.30
2017-05-25T16:36:52.988Z,3.18
2017-05-25T16:39:21.307Z,3.36
2017-05-25T16:41:50.249Z,3.32
2017-05-25T16:44:18.608Z,2.98
2017-05-25T16:46:47.024Z,3.14
2017-05-25T16:49:15.663Z,3.28
2017-05-25T16:51:43.970Z,3.58
2017-05-25T16:54:12.261Z,2.90
2017-05-25T16:56:40.926Z,3.24
2017-05-25T16:59:09.259Z,3.02
2017-05-25T17:01:37.588Z,3.02
2017-05-25T17:04:06.157Z,3.30
2017-05-25T17:06:35.376Z,3.20
2017-05-25T17:09:03.730Z,3.40
2017-05-25T17:11:32.436Z,3.32
2017-05-25T17:14:00.746Z,3.18
2017-05-25T17:16:29.067Z,3.30
2017-05-25T17:18:57.665Z,2.92
2017-05-25T17:21:25.968Z,3.30
2017-05-25T17:23:54.281Z,3.26
2017-05-25T17:26:22.889Z,3.00
2017-05-25T17:28:51.197Z,3.18
2017-05-25T17:31:19.523Z,2.86
2017-05-25T17:33:48.138Z,3.26
2017-05-25T17:36:16.454Z,6.24
2017-05-25T17:38:44.774Z,4.48
2017-05-25T17:41:13.378Z,3.52
2017-05-25T17:43:41.722Z,3.78
2017-05-25T17:46:10.034Z,3.74
2017-05-25T17:48:38.809Z,4.30
2017-05-25T17:51:07.173Z,6.48
2017-05-25T17:53:35.504Z,3.58
2017-05-25T17:56:04.106Z,3.70
2017-05-25T17:58:32.440Z,3.54
2017-05-25T18:01:00.748Z,3.36
2017-05-25T18:03:29.559Z,3.62
2017-05-25T18:05:57.860Z,4.06
2017-05-25T18:08:26.236Z,4.66
2017-05-25T18:10:55.534Z,3.28
2017-05-25T18:13:23.844Z,3.36
2017-05-25T18:15:51.395Z,3.32
2017-05-25T18:18:19.969Z,3.54
2017-05-25T18:20:48.448Z,4.58
2017-05-25T18:23:16.957Z,3.86
2017-05-25T18:25:45.615Z,4.52
2017-05-25T18:28:13.922Z,3.82
2017-05-25T18:30:42.218Z,3.86
2017-05-25T18:33:11.433Z,4.50
2017-05-25T18:35:39.738Z,3.30
2017-05-25T18:38:08.084Z,3.02
2017-05-25T18:40:36.702Z,3.32
2017-05-25T18:43:04.996Z,3.68
2017-05-25T18:45:33.310Z,3.30
2017-05-25T18:48:02.766Z,4.58
2017-05-25T18:50:31.084Z,3.74
2017-05-25T18:52:59.410Z,3.48
2017-05-25T18:55:28.197Z,3.18
2017-05-25T18:57:56.502Z,4.62
2017-05-25T19:00:25.502Z,3.66
2017-05-25T19:02:54.071Z,3.86
2017-05-25T19:05:22.375Z,3.36
2017-05-25T19:07:50.824Z,3.42
2017-05-25T19:10:19.496Z,3.24
2017-05-25T19:12:47.816Z,4.08
2017-05-25T19:15:16.249Z,3.36
2017-05-25T19:17:44.947Z,3.24
2017-05-25T19:20:13.433Z,3.38
2017-05-25T19:22:41.748Z,3.50
2017-05-25T19:25:10.378Z,3.30
2017-05-25T19:27:38.671Z,3.20
2017-05-25T19:30:06.977Z,2.84
2017-05-25T19:32:36.658Z,3.28
2017-05-25T19:35:05.144Z,3.02
2017-05-25T19:37:33.444Z,3.66
2017-05-25T19:40:02.123Z,3.48
2017-05-25T19:42:30.472Z,3.02
2017-05-25T19:44:58.857Z,3.50
2017-05-25T19:47:27.550Z,2.66
2017-05-25T19:49:55.897Z,3.84
2017-05-25T19:52:24.296Z,2.90
2017-05-25T19:54:52.986Z,3.24
2017-05-25T19:57:21.297Z,3.10
2017-05-25T19:59:49.636Z,3.50
2017-05-25T20:02:18.425Z,3.06
2017-05-25T20:04:46.808Z,3.48
2017-05-25T20:07:15.098Z,2.92
2017-05-25T20:09:43.667Z,3.44
2017-05-25T20:12:12.236Z,3.32
2017-05-25T20:14:40.570Z,3.06
2017-05-25T20:17:09.299Z,2.94
2017-05-25T20:19:37.582Z,2.94
2017-05-25T20:22:05.890Z,3.02
2017-05-25T20:24:34.567Z,2.72
2017-05-25T20:27:02.910Z,3.22
2017-05-25T20:29:31.316Z,3.14
2017-05-25T20:32:00.002Z,2.76
2017-05-25T20:34:27.531Z,3.56
2017-05-25T20:36:55.889Z,2.90
2017-05-25T20:39:24.683Z,2.72
2017-05-25T20:41:52.998Z,3.08
2017-05-25T20:44:21.309Z,3.10
2017-05-25T20:46:50.077Z,3.00
2017-05-25T20:49:18.364Z,2.66
2017-05-25T20:51:46.683Z,2.72
2017-05-25T20:54:15.584Z,3.26
2017-05-25T20:56:43.937Z,2.90
2017-05-25T20:59:12.279Z,2.82
2017-05-25T21:01:40.990Z,3.06
2017-05-25T21:04:09.498Z,2.84
2017-05-25T21:06:37.795Z,3.30
2017-05-25T21:09:06.440Z,3.78
2017-05-25T21:11:34.878Z,2.60
2017-05-25T21:14:03.201Z,3.00
2017-05-25T21:16:31.826Z,2.98
2017-05-25T21:19:00.143Z,2.70
2017-05-25T21:21:28.458Z,2.98
2017-05-25T21:23:57.082Z,2.92
2017-05-25T21:26:25.623Z,2.58
2017-05-25T21:28:53.912Z,2.18
2017-05-25T21:31:22.518Z,2.60
2017-05-25T21:33:50.824Z,3.00
2017-05-25T21:36:19.163Z,3.10
2017-05-25T21:38:47.747Z,2.90
2017-05-25T21:41:15.432Z,2.34
2017-05-25T21:43:43.776Z,2.86
2017-05-25T21:46:13.610Z,3.24
2017-05-25T21:48:41.891Z,2.60
2017-05-25T21:51:10.185Z,2.80
2017-05-25T21:53:38.832Z,3.06
2017-05-25T21:56:07.133Z,2.72
2017-05-25T21:58:35.606Z,2.68
2017-05-25T22:01:04.211Z,2.94
2017-05-25T22:03:32.536Z,3.06
2017-05-25T22:06:01.050Z,3.10
2017-05-25T22:08:29.726Z,2.22
2017-05-25T22:10:58.058Z,2.94
2017-05-25T22:13:26.384Z,2.78
2017-05-25T22:15:55.235Z,2.60
2017-05-25T22:18:23.577Z,2.90
2017-05-25T22:20:51.887Z,2.90
2017-05-25T22:23:20.598Z,2.60
2017-05-25T22:25:48.951Z,2.50
2017-05-25T22:28:17.242Z,3.06
2017-05-25T22:30:45.859Z,2.52
2017-05-25T22:33:14.319Z,2.56
2017-05-25T22:35:42.713Z,2.42
2017-05-25T22:38:11.343Z,2.84
2017-05-25T22:40:39.635Z,2.66
2017-05-25T22:43:07.924Z,2.54
2017-05-25T22:45:36.439Z,2.30
2017-05-25T22:48:04.731Z,2.28
2017-05-25T22:50:33.087Z,2.86
2017-05-25T22:53:01.747Z,2.28
2017-05-25T22:55:30.113Z,2.86
2017-05-25T22:57:58.503Z,2.62
2017-05-25T23:00:27.179Z,2.66
2017-05-25T23:02:55.468Z,3.10
2017-05-25T23:05:23.843Z,2.46
2017-05-25T23:07:52.425Z,3.10
2017-05-25T23:10:20.791Z,2.48
2017-05-25T23:12:49.073Z,2.50
2017-05-25T23:15:17.665Z,2.34
2017-05-25T23:17:45.938Z,2.50
2017-05-25T23:20:14.215Z,2.62
2017-05-25T23:22:42.732Z,2.40
2017-05-25T23:25:11.065Z,2.22
2017-05-25T23:27:39.458Z,2.32
2017-05-25T23:30:07.964Z,2.56
2017-05-25T23:32:35.488Z,2.86
2017-05-25T23:35:03.862Z,2.60
2017-05-25T23:37:32.375Z,2.30
2017-05-25T23:40:01.446Z,2.56
2017-05-25T23:42:29.928Z,2.66
2017-05-25T23:44:58.614Z,2.46
2017-05-25T23:47:26.900Z,2.40
2017-05-25T23:49:55.193Z,2.80
2017-05-25T23:52:23.957Z,2.68
2017-05-25T23:54:52.333Z,2.56
2017-05-25T23:57:20.818Z,2.80
2017-05-25T23:59:49.330Z,2.36
